Terminal Aerodrome Forecast
Issued by NWS Northern Indiana

Home | Current Version | Previous Version | Graphics & Text | Print | Product List | Glossary On
Versions: 1 2 3 4 5 6 7 8 9 10 11 12
000
FTUS43 KIWX 310520
TAFFWA
TAF
KFWA 310520Z 3106/0106 00000KT 3SM BR SKC
     FM310700 00000KT 2SM BR SCT006
      TEMPO 3109/3113 1/2SM FG BKN002
     FM311300 VRB03KT 4SM BR SCT006 BKN015
     FM311500 23003KT P6SM BKN020
     FM311700 23007KT P6SM SCT030=

USA.gov is the U.S. government's official web portal to all federal, state and local government web resources and services.